Airfield :
LOGIN :

Register | Disclaimer

   EN    FR    IT 

 










Legend :    VFR   Marginal VFR   IFR   Intensive IFR   Very Intensive IFR
Visi :
Ceiling :
>= 8 km
>= 3000ft
5 to 8 km
1000 to 3000 ft
1500m to 5 km
500 to 1000 ft
800 to 1500m
200 to 500 ft
< 800m
< 200 ft
Symbols :   Thunderstorms  Fog  Heavy snow  Heavy precipitations  Wind > 20 kt
SIGMETs :     Misc.  Thunderstorms  Icing  Turbulence  Mountain Waves  Volcanic Ashes






- Airport Elevation : 423 ft
- IATA code : PIS


LFBI - Poitiers

CURRENT METAR :
  • 260330Z AUTO 14005KT CAVOK 06/05 Q1016 TEMPO SCT005 BKN010

EXPIRED METARs :
  • 260300Z AUTO 16003KT CAVOK 06/05 Q1016 NOSIG
  • 260230Z AUTO 18003KT CAVOK 06/05 Q1017 NOSIG
  • 260200Z AUTO 16005KT CAVOK 06/05 Q1017 NOSIG
  • 260130Z AUTO 21003KT CAVOK 05/05 Q1017
  • 260100Z AUTO 20004KT CAVOK 06/05 Q1017 TEMPO 4000 BR

TAF TAF LFBI
Valid from the 26 at 00:00 until the 27 at 00:00 UTC


252300Z 2600/2624 15005KT CAVOK
PROB30 2600/2602 4000 BR
TEMPO 2602/2605 5000 -RA OVC040
PROB40
TEMPO 2605/2612 SCT005 BKN010
BECMG 2612/2614 21010KT BKN030
BECMG 2619/2621 21012G22KT BKN015
TEMPO 2621/2624 5000 -RA OVC013



MET'MAP, your aeronautical weather chart ! - Copyright ORBIFLY December 2007 - Disclaimer

ORBIFLY MET'MAP TEAM :

Programming & Development : Alexandra Zaïnal
Concept & original design : Baudouin d'Aumeries
Assistance for programming : Marc-Olivier Méhu
Technical & hardware support : Manuel Goepfert

Contact : metmap@orbifly.com




SOURCES & CREDITS :

   NOAA